Otsego, MI (49078)

1:30 AM EDT on May 30, 2015 (GMT -0400)
Browns Hay Farm | | Change Station
CLOSE
Current Station
Personal Weather Station
Location: ALLEGAN, MI
Elevation: 737 ft
Nearby Weather Stations

Elev 737 ft 42.52 °N, 85.77 °W | Updated 5 minutes ago

Overcast
Overcast
70.0 °F
Feels Like 70.0 °F
N
6.0
Wind Variable Wind from SW
Gusts 10.0 mph

Today
High -- | Low -- °F
--% Chance of Precip.
Yesterday
High -- | Low -- °F
Precip. -- in
6:09 AM 9:11 PM
Waxing Gibbous, 88% visible
Pressure 29.95 in
Visibility 10.0 miles
Clouds Few 10000 ft
Dew Point 67 °F
Humidity 90%
Rainfall 0.03 in
Snow Depth Not available.
UV 0 out of 12
Pollen 9.10 out of 12
Air Quality Not available.
Flu Activity Sporadic
METAR KAZO 300453Z AUTO 21005KT 10SM FEW100 21/19 A2996 RMK AO2 RAE26 SLP141 P0003 T02110189 402890172

More Conditions Fewer Conditions

Pressure 29.95 in
Visibility 10.0 miles
Clouds Few 10000 ft
Dew Point 67 °F
Humidity 90%
Rainfall 0.03 in
Snow Depth Not available.
UV 0 out of 12
Pollen 9.10 out of 12
Air Quality Not available.
Flu Activity Sporadic
METAR KAZO 300453Z AUTO 21005KT 10SM FEW100 21/19 A2996 RMK AO2 RAE26 SLP141 P0003 T02110189 402890172

More Conditions Fewer Conditions

10-Day Weather Forecast

Almanac

Astronomy

May. 30, 2015 Rise Set
Actual Time
Civil Twilight
Nautical Twilight
Astronomical Twilight
Moon
Length of Visible Light
Length of Day
Tomorrow will be .
, % of the Moon is Illuminated

Today's Extremes

State Highs State Lows

Community

WunderPhotos

Upload Photos

1,825,459 photos uploaded!

WunderBlogs® & News

Nearby

Air Quality

  Air Quality AQ Index Pollutant
Not available.

Snow Depth

Station Depth Elevation

Earthquake Activity

City Distance Mag. Time & Date
Minimum magnitude displayed is 2.5.

Coastal Water Temperatures

Place Temperature

Stations

Nearby Weather Stations

Station Location Temp. Windchill Dew Point Humidity Wind Precip. Elev Updated Type